sensor_id;sensor_type;location;lat;lon;timestamp;P1;durP1;ratioP1;P2;durP2;ratioP2
43337;SDS011;28933;52.492;13.434;2022-11-04T00:01:39;10.55;;;7.18;;
43337;SDS011;28933;52.492;13.434;2022-11-04T00:04:10;11.95;;;7.20;;
43337;SDS011;28933;52.492;13.434;2022-11-04T00:06:37;11.18;;;7.45;;
43337;SDS011;28933;52.492;13.434;2022-11-04T00:09:03;12.05;;;6.82;;
43337;SDS011;28933;52.492;13.434;2022-11-04T00:11:32;15.30;;;7.30;;
43337;SDS011;28933;52.492;13.434;2022-11-04T00:14:17;9.80;;;6.53;;
43337;SDS011;28933;52.492;13.434;2022-11-04T00:16:43;13.50;;;8.27;;
43337;SDS011;28933;52.492;13.434;2022-11-04T00:19:28;16.23;;;6.68;;
43337;SDS011;28933;52.492;13.434;2022-11-04T00:22:13;11.30;;;7.10;;
43337;SDS011;28933;52.492;13.434;2022-11-04T00:24:58;11.43;;;7.32;;
43337;SDS011;28933;52.492;13.434;2022-11-04T00:27:24;11.15;;;7.43;;
43337;SDS011;28933;52.492;13.434;2022-11-04T00:30:08;15.90;;;7.10;;
43337;SDS011;28933;52.492;13.434;2022-11-04T00:32:35;10.13;;;6.43;;
43337;SDS011;28933;52.492;13.434;2022-11-04T00:35:20;10.85;;;7.18;;
43337;SDS011;28933;52.492;13.434;2022-11-04T00:37:46;13.95;;;7.50;;
43337;SDS011;28933;52.492;13.434;2022-11-04T00:40:12;11.95;;;8.00;;
43337;SDS011;28933;52.492;13.434;2022-11-04T00:42:39;14.95;;;7.32;;
43337;SDS011;28933;52.492;13.434;2022-11-04T00:45:08;10.32;;;7.13;;
43337;SDS011;28933;52.492;13.434;2022-11-04T00:47:33;14.93;;;7.32;;
43337;SDS011;28933;52.492;13.434;2022-11-04T00:50:01;13.68;;;8.00;;
43337;SDS011;28933;52.492;13.434;2022-11-04T00:52:27;12.65;;;7.72;;
43337;SDS011;28933;52.492;13.434;2022-11-04T00:54:52;9.95;;;7.28;;
43337;SDS011;28933;52.492;13.434;2022-11-04T00:57:19;11.35;;;6.95;;
43337;SDS011;28933;52.492;13.434;2022-11-04T00:59:45;14.05;;;7.95;;
43337;SDS011;28933;52.492;13.434;2022-11-04T01:02:12;15.63;;;8.20;;
43337;SDS011;28933;52.492;13.434;2022-11-04T01:04:37;13.70;;;8.32;;
43337;SDS011;28933;52.492;13.434;2022-11-04T01:07:03;13.40;;;7.57;;
43337;SDS011;28933;52.492;13.434;2022-11-04T01:09:29;11.85;;;7.53;;
43337;SDS011;28933;52.492;13.434;2022-11-04T01:11:56;12.95;;;8.38;;
43337;SDS011;28933;52.492;13.434;2022-11-04T01:14:22;12.25;;;6.88;;
43337;SDS011;28933;52.492;13.434;2022-11-04T01:16:48;12.68;;;6.97;;
43337;SDS011;28933;52.492;13.434;2022-11-04T01:19:15;10.75;;;7.95;;
43337;SDS011;28933;52.492;13.434;2022-11-04T01:21:41;12.23;;;7.95;;
43337;SDS011;28933;52.492;13.434;2022-11-04T01:24:07;10.70;;;7.38;;
43337;SDS011;28933;52.492;13.434;2022-11-04T01:26:32;13.65;;;7.38;;
43337;SDS011;28933;52.492;13.434;2022-11-04T01:28:58;13.23;;;8.10;;
43337;SDS011;28933;52.492;13.434;2022-11-04T01:31:29;14.05;;;6.65;;
43337;SDS011;28933;52.492;13.434;2022-11-04T01:33:55;11.85;;;6.75;;
43337;SDS011;28933;52.492;13.434;2022-11-04T01:36:22;12.63;;;6.93;;
43337;SDS011;28933;52.492;13.434;2022-11-04T01:38:48;10.02;;;6.43;;
43337;SDS011;28933;52.492;13.434;2022-11-04T01:41:25;10.93;;;6.82;;
43337;SDS011;28933;52.492;13.434;2022-11-04T01:43:57;10.23;;;7.22;;
43337;SDS011;28933;52.492;13.434;2022-11-04T01:46:26;11.70;;;7.10;;
43337;SDS011;28933;52.492;13.434;2022-11-04T01:49:05;12.52;;;8.05;;
43337;SDS011;28933;52.492;13.434;2022-11-04T01:51:42;10.52;;;6.93;;
43337;SDS011;28933;52.492;13.434;2022-11-04T01:54:11;13.27;;;8.20;;
43337;SDS011;28933;52.492;13.434;2022-11-04T01:56:37;12.73;;;7.70;;
43337;SDS011;28933;52.492;13.434;2022-11-04T01:59:06;9.63;;;7.07;;
43337;SDS011;28933;52.492;13.434;2022-11-04T02:01:36;13.20;;;7.82;;
43337;SDS011;28933;52.492;13.434;2022-11-04T02:04:02;12.88;;;8.13;;
43337;SDS011;28933;52.492;13.434;2022-11-04T02:06:47;12.00;;;7.43;;
43337;SDS011;28933;52.492;13.434;2022-11-04T02:09:14;13.68;;;8.73;;
43337;SDS011;28933;52.492;13.434;2022-11-04T02:11:41;13.52;;;8.48;;
43337;SDS011;28933;52.492;13.434;2022-11-04T02:14:26;13.00;;;8.40;;
43337;SDS011;28933;52.492;13.434;2022-11-04T02:16:52;15.05;;;8.48;;
43337;SDS011;28933;52.492;13.434;2022-11-04T02:27:36;14.48;;;8.85;;
43337;SDS011;28933;52.492;13.434;2022-11-04T02:30:17;11.80;;;7.97;;
43337;SDS011;28933;52.492;13.434;2022-11-04T02:43:44;13.82;;;7.07;;
43337;SDS011;28933;52.492;13.434;2022-11-04T02:46:30;11.85;;;8.15;;
43337;SDS011;28933;52.492;13.434;2022-11-04T02:49:05;10.00;;;7.13;;
43337;SDS011;28933;52.492;13.434;2022-11-04T02:51:40;11.20;;;8.02;;
43337;SDS011;28933;52.492;13.434;2022-11-04T02:54:22;12.35;;;7.57;;
43337;SDS011;28933;52.492;13.434;2022-11-04T02:56:55;14.68;;;8.10;;
43337;SDS011;28933;52.492;13.434;2022-11-04T03:01:59;12.43;;;8.25;;
43337;SDS011;28933;52.492;13.434;2022-11-04T03:04:32;15.85;;;8.05;;
43337;SDS011;28933;52.492;13.434;2022-11-04T03:07:02;12.20;;;7.72;;
43337;SDS011;28933;52.492;13.434;2022-11-04T03:09:32;13.02;;;8.82;;
43337;SDS011;28933;52.492;13.434;2022-11-04T03:12:05;12.35;;;7.40;;
43337;SDS011;28933;52.492;13.434;2022-11-04T03:14:43;10.95;;;7.45;;
43337;SDS011;28933;52.492;13.434;2022-11-04T03:17:18;11.70;;;8.07;;
43337;SDS011;28933;52.492;13.434;2022-11-04T03:19:55;12.95;;;8.23;;
43337;SDS011;28933;52.492;13.434;2022-11-04T03:22:24;14.85;;;8.50;;
43337;SDS011;28933;52.492;13.434;2022-11-04T03:24:53;15.05;;;8.02;;
43337;SDS011;28933;52.492;13.434;2022-11-04T03:28:07;11.07;;;8.20;;
43337;SDS011;28933;52.492;13.434;2022-11-04T03:30:19;12.30;;;8.38;;
43337;SDS011;28933;52.492;13.434;2022-11-04T03:33:04;12.65;;;8.35;;
43337;SDS011;28933;52.492;13.434;2022-11-04T03:38:08;13.05;;;7.85;;
43337;SDS011;28933;52.492;13.434;2022-11-04T03:40:33;13.35;;;8.80;;
43337;SDS011;28933;52.492;13.434;2022-11-04T03:43:01;13.77;;;7.68;;
43337;SDS011;28933;52.492;13.434;2022-11-04T03:45:39;13.15;;;8.18;;
43337;SDS011;28933;52.492;13.434;2022-11-04T03:48:06;10.77;;;7.38;;
43337;SDS011;28933;52.492;13.434;2022-11-04T03:50:33;12.68;;;8.68;;
43337;SDS011;28933;52.492;13.434;2022-11-04T03:53:08;12.93;;;7.85;;
43337;SDS011;28933;52.492;13.434;2022-11-04T04:00:50;12.95;;;8.20;;
43337;SDS011;28933;52.492;13.434;2022-11-04T04:03:24;11.35;;;7.63;;
43337;SDS011;28933;52.492;13.434;2022-11-04T04:06:05;14.77;;;8.88;;
43337;SDS011;28933;52.492;13.434;2022-11-04T04:08:55;15.13;;;8.30;;
43337;SDS011;28933;52.492;13.434;2022-11-04T04:19:54;12.48;;;8.82;;
43337;SDS011;28933;52.492;13.434;2022-11-04T04:25:11;12.48;;;8.80;;
43337;SDS011;28933;52.492;13.434;2022-11-04T04:28:04;10.52;;;8.23;;
43337;SDS011;28933;52.492;13.434;2022-11-04T04:30:31;15.90;;;8.68;;
43337;SDS011;28933;52.492;13.434;2022-11-04T04:33:00;12.00;;;8.73;;
43337;SDS011;28933;52.492;13.434;2022-11-04T04:35:34;12.65;;;8.43;;
43337;SDS011;28933;52.492;13.434;2022-11-04T04:38:17;12.73;;;7.85;;
43337;SDS011;28933;52.492;13.434;2022-11-04T04:41:18;19.42;;;9.85;;
43337;SDS011;28933;52.492;13.434;2022-11-04T04:44:14;13.85;;;8.45;;
43337;SDS011;28933;52.492;13.434;2022-11-04T04:47:12;12.73;;;8.75;;
43337;SDS011;28933;52.492;13.434;2022-11-04T04:49:53;19.35;;;9.65;;
43337;SDS011;28933;52.492;13.434;2022-11-04T04:52:22;12.35;;;8.88;;
43337;SDS011;28933;52.492;13.434;2022-11-04T04:54:49;12.70;;;8.50;;
43337;SDS011;28933;52.492;13.434;2022-11-04T04:57:14;14.15;;;9.48;;
43337;SDS011;28933;52.492;13.434;2022-11-04T04:59:40;14.10;;;8.82;;
43337;SDS011;28933;52.492;13.434;2022-11-04T05:02:06;10.48;;;8.10;;
43337;SDS011;28933;52.492;13.434;2022-11-04T05:04:32;13.00;;;8.48;;
43337;SDS011;28933;52.492;13.434;2022-11-04T05:06:57;11.70;;;8.23;;
43337;SDS011;28933;52.492;13.434;2022-11-04T05:09:23;11.65;;;8.77;;
43337;SDS011;28933;52.492;13.434;2022-11-04T05:11:49;16.95;;;9.60;;
43337;SDS011;28933;52.492;13.434;2022-11-04T05:14:14;14.80;;;9.07;;
43337;SDS011;28933;52.492;13.434;2022-11-04T05:16:40;16.08;;;9.45;;
43337;SDS011;28933;52.492;13.434;2022-11-04T05:19:05;13.77;;;9.48;;
43337;SDS011;28933;52.492;13.434;2022-11-04T05:21:31;12.20;;;8.98;;
43337;SDS011;28933;52.492;13.434;2022-11-04T05:23:57;13.30;;;8.40;;
43337;SDS011;28933;52.492;13.434;2022-11-04T05:26:22;16.10;;;9.00;;
43337;SDS011;28933;52.492;13.434;2022-11-04T05:28:48;14.50;;;8.70;;
43337;SDS011;28933;52.492;13.434;2022-11-04T05:31:13;10.32;;;8.52;;
43337;SDS011;28933;52.492;13.434;2022-11-04T05:33:39;15.82;;;9.45;;
43337;SDS011;28933;52.492;13.434;2022-11-04T05:36:11;14.30;;;9.38;;
43337;SDS011;28933;52.492;13.434;2022-11-04T05:38:39;13.20;;;9.03;;
43337;SDS011;28933;52.492;13.434;2022-11-04T05:41:05;16.52;;;9.77;;
43337;SDS011;28933;52.492;13.434;2022-11-04T05:43:32;15.38;;;9.52;;
43337;SDS011;28933;52.492;13.434;2022-11-04T05:45:59;15.98;;;8.93;;
43337;SDS011;28933;52.492;13.434;2022-11-04T05:48:25;12.27;;;8.38;;
43337;SDS011;28933;52.492;13.434;2022-11-04T05:50:51;12.50;;;8.90;;
43337;SDS011;28933;52.492;13.434;2022-11-04T05:53:17;13.48;;;9.52;;
43337;SDS011;28933;52.492;13.434;2022-11-04T05:55:43;17.88;;;10.35;;
43337;SDS011;28933;52.492;13.434;2022-11-04T05:58:09;19.27;;;10.63;;
43337;SDS011;28933;52.492;13.434;2022-11-04T06:00:34;12.85;;;9.23;;
43337;SDS011;28933;52.492;13.434;2022-11-04T06:03:00;15.05;;;10.35;;
43337;SDS011;28933;52.492;13.434;2022-11-04T06:05:26;13.13;;;9.10;;
43337;SDS011;28933;52.492;13.434;2022-11-04T06:07:53;14.52;;;10.10;;
43337;SDS011;28933;52.492;13.434;2022-11-04T06:10:19;12.80;;;9.77;;
43337;SDS011;28933;52.492;13.434;2022-11-04T06:12:44;16.17;;;10.30;;
43337;SDS011;28933;52.492;13.434;2022-11-04T06:15:10;16.67;;;9.88;;
43337;SDS011;28933;52.492;13.434;2022-11-04T06:17:36;14.88;;;9.48;;
43337;SDS011;28933;52.492;13.434;2022-11-04T06:20:02;12.50;;;8.95;;
43337;SDS011;28933;52.492;13.434;2022-11-04T06:22:29;15.15;;;9.27;;
43337;SDS011;28933;52.492;13.434;2022-11-04T06:24:55;15.40;;;10.13;;
43337;SDS011;28933;52.492;13.434;2022-11-04T06:27:21;15.10;;;9.38;;
43337;SDS011;28933;52.492;13.434;2022-11-04T06:29:46;14.48;;;9.27;;
43337;SDS011;28933;52.492;13.434;2022-11-04T06:32:13;16.50;;;10.15;;
43337;SDS011;28933;52.492;13.434;2022-11-04T06:34:43;13.95;;;8.82;;
43337;SDS011;28933;52.492;13.434;2022-11-04T06:37:09;16.25;;;10.20;;
43337;SDS011;28933;52.492;13.434;2022-11-04T06:39:35;14.82;;;9.52;;
43337;SDS011;28933;52.492;13.434;2022-11-04T06:42:01;16.50;;;9.52;;
43337;SDS011;28933;52.492;13.434;2022-11-04T06:44:26;15.88;;;10.23;;
43337;SDS011;28933;52.492;13.434;2022-11-04T06:46:52;13.98;;;9.48;;
43337;SDS011;28933;52.492;13.434;2022-11-04T06:49:19;15.93;;;9.85;;
43337;SDS011;28933;52.492;13.434;2022-11-04T06:51:46;14.15;;;9.50;;
43337;SDS011;28933;52.492;13.434;2022-11-04T06:54:13;13.25;;;9.07;;
43337;SDS011;28933;52.492;13.434;2022-11-04T06:56:40;15.20;;;9.73;;
43337;SDS011;28933;52.492;13.434;2022-11-04T06:59:06;14.23;;;9.30;;
43337;SDS011;28933;52.492;13.434;2022-11-04T07:01:33;14.25;;;10.32;;
43337;SDS011;28933;52.492;13.434;2022-11-04T07:04:01;13.82;;;9.90;;
43337;SDS011;28933;52.492;13.434;2022-11-04T07:06:29;16.65;;;9.52;;
43337;SDS011;28933;52.492;13.434;2022-11-04T07:08:56;15.25;;;9.52;;
43337;SDS011;28933;52.492;13.434;2022-11-04T07:11:25;12.63;;;9.05;;
43337;SDS011;28933;52.492;13.434;2022-11-04T07:13:53;13.50;;;10.40;;
43337;SDS011;28933;52.492;13.434;2022-11-04T07:16:19;13.40;;;9.45;;
43337;SDS011;28933;52.492;13.434;2022-11-04T07:18:44;13.23;;;9.73;;
43337;SDS011;28933;52.492;13.434;2022-11-04T07:21:11;13.73;;;10.05;;
43337;SDS011;28933;52.492;13.434;2022-11-04T07:23:37;13.90;;;9.38;;
43337;SDS011;28933;52.492;13.434;2022-11-04T07:26:03;12.85;;;10.13;;
43337;SDS011;28933;52.492;13.434;2022-11-04T07:28:31;15.27;;;10.68;;
43337;SDS011;28933;52.492;13.434;2022-11-04T07:30:58;15.95;;;10.10;;
43337;SDS011;28933;52.492;13.434;2022-11-04T07:33:25;13.73;;;9.95;;
43337;SDS011;28933;52.492;13.434;2022-11-04T07:35:51;15.23;;;10.40;;
43337;SDS011;28933;52.492;13.434;2022-11-04T07:38:18;13.85;;;10.40;;
43337;SDS011;28933;52.492;13.434;2022-11-04T07:40:44;16.67;;;10.23;;
43337;SDS011;28933;52.492;13.434;2022-11-04T07:43:11;12.70;;;10.30;;
43337;SDS011;28933;52.492;13.434;2022-11-04T07:45:36;14.05;;;10.38;;
43337;SDS011;28933;52.492;13.434;2022-11-04T07:48:02;13.88;;;9.68;;
43337;SDS011;28933;52.492;13.434;2022-11-04T07:50:28;14.00;;;10.55;;
43337;SDS011;28933;52.492;13.434;2022-11-04T07:52:54;14.80;;;10.50;;
43337;SDS011;28933;52.492;13.434;2022-11-04T07:55:19;13.73;;;10.10;;
43337;SDS011;28933;52.492;13.434;2022-11-04T07:57:45;16.08;;;10.20;;
43337;SDS011;28933;52.492;13.434;2022-11-04T08:00:12;15.38;;;11.48;;
43337;SDS011;28933;52.492;13.434;2022-11-04T08:02:41;18.00;;;10.70;;
43337;SDS011;28933;52.492;13.434;2022-11-04T08:05:14;12.52;;;9.95;;
43337;SDS011;28933;52.492;13.434;2022-11-04T08:07:40;13.63;;;9.70;;
43337;SDS011;28933;52.492;13.434;2022-11-04T08:10:07;14.50;;;10.40;;
43337;SDS011;28933;52.492;13.434;2022-11-04T08:12:34;14.68;;;10.30;;
43337;SDS011;28933;52.492;13.434;2022-11-04T08:14:59;15.23;;;11.02;;
43337;SDS011;28933;52.492;13.434;2022-11-04T08:17:25;13.88;;;10.27;;
43337;SDS011;28933;52.492;13.434;2022-11-04T08:19:50;15.20;;;10.45;;
43337;SDS011;28933;52.492;13.434;2022-11-04T08:22:17;12.32;;;10.32;;
43337;SDS011;28933;52.492;13.434;2022-11-04T08:24:43;15.13;;;10.23;;
43337;SDS011;28933;52.492;13.434;2022-11-04T08:27:11;12.77;;;9.85;;
43337;SDS011;28933;52.492;13.434;2022-11-04T08:29:37;15.25;;;10.65;;
43337;SDS011;28933;52.492;13.434;2022-11-04T08:32:02;14.98;;;10.63;;
43337;SDS011;28933;52.492;13.434;2022-11-04T08:34:28;14.50;;;10.60;;
43337;SDS011;28933;52.492;13.434;2022-11-04T08:36:53;15.00;;;9.73;;
43337;SDS011;28933;52.492;13.434;2022-11-04T08:39:22;14.27;;;10.32;;
43337;SDS011;28933;52.492;13.434;2022-11-04T08:41:47;11.82;;;9.88;;
43337;SDS011;28933;52.492;13.434;2022-11-04T08:44:14;15.55;;;10.85;;
43337;SDS011;28933;52.492;13.434;2022-11-04T08:46:41;14.43;;;9.65;;
43337;SDS011;28933;52.492;13.434;2022-11-04T08:49:08;15.25;;;10.90;;
43337;SDS011;28933;52.492;13.434;2022-11-04T08:51:36;16.42;;;9.02;;
43337;SDS011;28933;52.492;13.434;2022-11-04T08:54:05;12.75;;;9.27;;
43337;SDS011;28933;52.492;13.434;2022-11-04T08:56:32;13.32;;;9.82;;
43337;SDS011;28933;52.492;13.434;2022-11-04T08:59:00;13.40;;;9.30;;
43337;SDS011;28933;52.492;13.434;2022-11-04T09:01:28;12.02;;;9.30;;
43337;SDS011;28933;52.492;13.434;2022-11-04T09:03:55;13.35;;;8.30;;
43337;SDS011;28933;52.492;13.434;2022-11-04T09:06:22;14.10;;;9.07;;
43337;SDS011;28933;52.492;13.434;2022-11-04T09:08:50;10.82;;;8.27;;
43337;SDS011;28933;52.492;13.434;2022-11-04T09:11:16;14.05;;;8.77;;
43337;SDS011;28933;52.492;13.434;2022-11-04T09:13:42;14.07;;;9.20;;
43337;SDS011;28933;52.492;13.434;2022-11-04T09:16:10;10.55;;;7.50;;
43337;SDS011;28933;52.492;13.434;2022-11-04T09:18:36;11.35;;;7.15;;
43337;SDS011;28933;52.492;13.434;2022-11-04T09:21:03;10.63;;;7.28;;
43337;SDS011;28933;52.492;13.434;2022-11-04T09:23:29;11.23;;;7.43;;
43337;SDS011;28933;52.492;13.434;2022-11-04T09:25:55;9.25;;;6.57;;
43337;SDS011;28933;52.492;13.434;2022-11-04T09:28:22;10.60;;;7.68;;
43337;SDS011;28933;52.492;13.434;2022-11-04T09:30:48;10.35;;;6.53;;
43337;SDS011;28933;52.492;13.434;2022-11-04T09:33:15;12.07;;;7.13;;
43337;SDS011;28933;52.492;13.434;2022-11-04T09:35:41;10.60;;;7.15;;
43337;SDS011;28933;52.492;13.434;2022-11-04T09:38:07;8.65;;;5.95;;
43337;SDS011;28933;52.492;13.434;2022-11-04T09:40:34;8.15;;;5.97;;
43337;SDS011;28933;52.492;13.434;2022-11-04T09:45:44;10.23;;;6.78;;
43337;SDS011;28933;52.492;13.434;2022-11-04T09:48:12;9.45;;;6.22;;
43337;SDS011;28933;52.492;13.434;2022-11-04T09:50:52;6.88;;;5.63;;
43337;SDS011;28933;52.492;13.434;2022-11-04T09:53:24;13.30;;;7.22;;
43337;SDS011;28933;52.492;13.434;2022-11-04T09:55:57;8.30;;;6.38;;
43337;SDS011;28933;52.492;13.434;2022-11-04T09:58:27;8.10;;;6.32;;
43337;SDS011;28933;52.492;13.434;2022-11-04T10:01:02;10.43;;;6.22;;
43337;SDS011;28933;52.492;13.434;2022-11-04T10:19:29;8.80;;;6.60;;
43337;SDS011;28933;52.492;13.434;2022-11-04T10:22:26;10.07;;;6.78;;
43337;SDS011;28933;52.492;13.434;2022-11-04T10:27:45;12.35;;;7.00;;
43337;SDS011;28933;52.492;13.434;2022-11-04T10:33:02;8.80;;;6.97;;
43337;SDS011;28933;52.492;13.434;2022-11-04T10:35:35;8.68;;;5.85;;
43337;SDS011;28933;52.492;13.434;2022-11-04T10:38:16;9.35;;;6.85;;
43337;SDS011;28933;52.492;13.434;2022-11-04T10:40:49;7.10;;;5.75;;
43337;SDS011;28933;52.492;13.434;2022-11-04T10:43:24;7.82;;;6.18;;
43337;SDS011;28933;52.492;13.434;2022-11-04T10:48:54;8.32;;;6.95;;
43337;SDS011;28933;52.492;13.434;2022-11-04T10:51:29;9.50;;;7.47;;
43337;SDS011;28933;52.492;13.434;2022-11-04T10:53:56;8.32;;;7.30;;
43337;SDS011;28933;52.492;13.434;2022-11-04T10:56:34;10.00;;;7.05;;
43337;SDS011;28933;52.492;13.434;2022-11-04T10:59:18;9.35;;;7.00;;
43337;SDS011;28933;52.492;13.434;2022-11-04T11:02:05;10.25;;;6.95;;
43337;SDS011;28933;52.492;13.434;2022-11-04T11:04:32;8.43;;;6.57;;
43337;SDS011;28933;52.492;13.434;2022-11-04T11:07:04;16.05;;;7.60;;
43337;SDS011;28933;52.492;13.434;2022-11-04T11:09:32;9.18;;;6.63;;
43337;SDS011;28933;52.492;13.434;2022-11-04T11:12:01;12.77;;;7.10;;
43337;SDS011;28933;52.492;13.434;2022-11-04T11:17:19;8.95;;;7.60;;
43337;SDS011;28933;52.492;13.434;2022-11-04T11:20:04;8.82;;;6.68;;
43337;SDS011;28933;52.492;13.434;2022-11-04T11:22:48;9.65;;;6.90;;
43337;SDS011;28933;52.492;13.434;2022-11-04T11:27:49;11.00;;;7.35;;
43337;SDS011;28933;52.492;13.434;2022-11-04T11:30:21;10.02;;;7.07;;
43337;SDS011;28933;52.492;13.434;2022-11-04T11:33:03;10.15;;;7.43;;
43337;SDS011;28933;52.492;13.434;2022-11-04T11:35:34;9.70;;;6.60;;
43337;SDS011;28933;52.492;13.434;2022-11-04T11:38:27;8.80;;;6.65;;
43337;SDS011;28933;52.492;13.434;2022-11-04T11:41:02;13.70;;;7.45;;
43337;SDS011;28933;52.492;13.434;2022-11-04T11:43:39;9.35;;;6.55;;
43337;SDS011;28933;52.492;13.434;2022-11-04T11:46:19;9.77;;;7.53;;
43337;SDS011;28933;52.492;13.434;2022-11-04T11:48:50;10.05;;;7.28;;
43337;SDS011;28933;52.492;13.434;2022-11-04T11:51:25;9.52;;;7.18;;
43337;SDS011;28933;52.492;13.434;2022-11-04T11:56:51;9.60;;;7.28;;
43337;SDS011;28933;52.492;13.434;2022-11-04T11:59:24;7.80;;;7.00;;
43337;SDS011;28933;52.492;13.434;2022-11-04T12:02:22;12.27;;;8.02;;
43337;SDS011;28933;52.492;13.434;2022-11-04T12:04:49;8.48;;;7.07;;
43337;SDS011;28933;52.492;13.434;2022-11-04T12:10:12;8.85;;;7.07;;
43337;SDS011;28933;52.492;13.434;2022-11-04T12:12:48;10.38;;;7.60;;
43337;SDS011;28933;52.492;13.434;2022-11-04T12:18:25;7.93;;;6.93;;
43337;SDS011;28933;52.492;13.434;2022-11-04T12:21:18;10.35;;;6.93;;
43337;SDS011;28933;52.492;13.434;2022-11-04T12:23:58;10.20;;;7.95;;
43337;SDS011;28933;52.492;13.434;2022-11-04T12:40:23;9.02;;;7.13;;
43337;SDS011;28933;52.492;13.434;2022-11-04T12:42:55;8.38;;;7.43;;
43337;SDS011;28933;52.492;13.434;2022-11-04T12:51:31;8.80;;;7.55;;
43337;SDS011;28933;52.492;13.434;2022-11-04T12:57:04;8.77;;;6.90;;
43337;SDS011;28933;52.492;13.434;2022-11-04T12:59:45;9.40;;;7.32;;
43337;SDS011;28933;52.492;13.434;2022-11-04T13:04:46;8.23;;;7.35;;
43337;SDS011;28933;52.492;13.434;2022-11-04T13:07:23;9.07;;;7.43;;
43337;SDS011;28933;52.492;13.434;2022-11-04T13:10:18;9.95;;;8.05;;
43337;SDS011;28933;52.492;13.434;2022-11-04T13:12:49;10.02;;;7.68;;
43337;SDS011;28933;52.492;13.434;2022-11-04T13:15:19;8.73;;;6.93;;
43337;SDS011;28933;52.492;13.434;2022-11-04T13:17:52;9.40;;;6.72;;
43337;SDS011;28933;52.492;13.434;2022-11-04T13:20:38;10.73;;;6.95;;
43337;SDS011;28933;52.492;13.434;2022-11-04T13:25:41;8.95;;;6.55;;
43337;SDS011;28933;52.492;13.434;2022-11-04T13:28:13;10.68;;;7.75;;
43337;SDS011;28933;52.492;13.434;2022-11-04T13:33:17;8.60;;;7.13;;
43337;SDS011;28933;52.492;13.434;2022-11-04T13:43:54;9.15;;;6.90;;
43337;SDS011;28933;52.492;13.434;2022-11-04T13:51:43;11.35;;;7.40;;
43337;SDS011;28933;52.492;13.434;2022-11-04T13:57:12;12.18;;;9.25;;
43337;SDS011;28933;52.492;13.434;2022-11-04T13:59:40;11.18;;;8.07;;
43337;SDS011;28933;52.492;13.434;2022-11-04T14:04:40;8.40;;;7.22;;
43337;SDS011;28933;52.492;13.434;2022-11-04T14:07:16;9.20;;;7.93;;
43337;SDS011;28933;52.492;13.434;2022-11-04T14:14:44;8.43;;;7.53;;
43337;SDS011;28933;52.492;13.434;2022-11-04T14:19:59;15.07;;;8.52;;
43337;SDS011;28933;52.492;13.434;2022-11-04T14:25:32;10.43;;;7.97;;
43337;SDS011;28933;52.492;13.434;2022-11-04T14:28:01;9.45;;;8.30;;
43337;SDS011;28933;52.492;13.434;2022-11-04T14:30:42;10.77;;;8.65;;
43337;SDS011;28933;52.492;13.434;2022-11-04T14:33:18;10.05;;;8.00;;
43337;SDS011;28933;52.492;13.434;2022-11-04T14:38:54;9.45;;;8.05;;
43337;SDS011;28933;52.492;13.434;2022-11-04T14:44:07;9.60;;;8.38;;
43337;SDS011;28933;52.492;13.434;2022-11-04T14:46:45;8.60;;;7.65;;
43337;SDS011;28933;52.492;13.434;2022-11-04T14:54:45;9.15;;;7.25;;
43337;SDS011;28933;52.492;13.434;2022-11-04T14:57:14;10.50;;;8.13;;
43337;SDS011;28933;52.492;13.434;2022-11-04T14:59:42;11.10;;;8.73;;
43337;SDS011;28933;52.492;13.434;2022-11-04T15:02:17;9.85;;;8.52;;
43337;SDS011;28933;52.492;13.434;2022-11-04T15:04:47;8.88;;;7.65;;
43337;SDS011;28933;52.492;13.434;2022-11-04T15:07:32;11.35;;;9.07;;
43337;SDS011;28933;52.492;13.434;2022-11-04T15:10:13;10.00;;;8.50;;
43337;SDS011;28933;52.492;13.434;2022-11-04T15:12:46;10.47;;;8.23;;
43337;SDS011;28933;52.492;13.434;2022-11-04T15:15:24;11.68;;;8.50;;
43337;SDS011;28933;52.492;13.434;2022-11-04T15:18:05;8.63;;;7.72;;
43337;SDS011;28933;52.492;13.434;2022-11-04T15:20:48;8.38;;;7.55;;
43337;SDS011;28933;52.492;13.434;2022-11-04T15:23:19;10.05;;;7.13;;
43337;SDS011;28933;52.492;13.434;2022-11-04T15:26:27;10.45;;;7.53;;
43337;SDS011;28933;52.492;13.434;2022-11-04T15:29:00;10.27;;;8.45;;
43337;SDS011;28933;52.492;13.434;2022-11-04T15:31:32;9.55;;;7.38;;
43337;SDS011;28933;52.492;13.434;2022-11-04T15:34:00;9.88;;;8.27;;
43337;SDS011;28933;52.492;13.434;2022-11-04T15:36:28;10.27;;;8.15;;
43337;SDS011;28933;52.492;13.434;2022-11-04T15:41:45;9.45;;;7.88;;
43337;SDS011;28933;52.492;13.434;2022-11-04T15:44:34;10.20;;;7.22;;
43337;SDS011;28933;52.492;13.434;2022-11-04T15:47:23;9.38;;;7.03;;
43337;SDS011;28933;52.492;13.434;2022-11-04T15:49:52;9.50;;;6.95;;
43337;SDS011;28933;52.492;13.434;2022-11-04T15:52:27;9.85;;;7.97;;
43337;SDS011;28933;52.492;13.434;2022-11-04T15:54:57;8.88;;;7.68;;
43337;SDS011;28933;52.492;13.434;2022-11-04T15:57:26;10.57;;;7.85;;
43337;SDS011;28933;52.492;13.434;2022-11-04T16:00:01;10.15;;;8.15;;
43337;SDS011;28933;52.492;13.434;2022-11-04T16:02:34;10.65;;;7.72;;
43337;SDS011;28933;52.492;13.434;2022-11-04T16:07:36;10.48;;;8.30;;
43337;SDS011;28933;52.492;13.434;2022-11-04T16:13:02;12.45;;;7.88;;
43337;SDS011;28933;52.492;13.434;2022-11-04T16:15:41;8.82;;;7.10;;
43337;SDS011;28933;52.492;13.434;2022-11-04T16:18:22;10.10;;;7.45;;
43337;SDS011;28933;52.492;13.434;2022-11-04T16:20:53;8.43;;;7.28;;
43337;SDS011;28933;52.492;13.434;2022-11-04T16:23:24;9.43;;;6.97;;
43337;SDS011;28933;52.492;13.434;2022-11-04T16:26:02;9.98;;;8.57;;
43337;SDS011;28933;52.492;13.434;2022-11-04T16:28:30;8.30;;;7.05;;
43337;SDS011;28933;52.492;13.434;2022-11-04T16:31:02;10.18;;;8.02;;
43337;SDS011;28933;52.492;13.434;2022-11-04T16:33:32;10.93;;;7.82;;
43337;SDS011;28933;52.492;13.434;2022-11-04T16:35:59;9.23;;;7.25;;
43337;SDS011;28933;52.492;13.434;2022-11-04T16:38:25;9.65;;;7.85;;
43337;SDS011;28933;52.492;13.434;2022-11-04T16:40:50;11.32;;;7.95;;
43337;SDS011;28933;52.492;13.434;2022-11-04T16:43:17;10.75;;;8.00;;
43337;SDS011;28933;52.492;13.434;2022-11-04T16:45:45;9.25;;;7.57;;
43337;SDS011;28933;52.492;13.434;2022-11-04T16:48:16;11.52;;;7.85;;
43337;SDS011;28933;52.492;13.434;2022-11-04T16:50:43;11.15;;;7.60;;
43337;SDS011;28933;52.492;13.434;2022-11-04T16:53:11;12.13;;;7.80;;
43337;SDS011;28933;52.492;13.434;2022-11-04T16:55:40;9.82;;;7.57;;
43337;SDS011;28933;52.492;13.434;2022-11-04T16:58:13;8.73;;;7.43;;
43337;SDS011;28933;52.492;13.434;2022-11-04T17:00:42;8.95;;;7.72;;
43337;SDS011;28933;52.492;13.434;2022-11-04T17:03:14;11.15;;;8.00;;
43337;SDS011;28933;52.492;13.434;2022-11-04T17:05:51;9.88;;;8.00;;
43337;SDS011;28933;52.492;13.434;2022-11-04T17:08:20;10.80;;;7.55;;
43337;SDS011;28933;52.492;13.434;2022-11-04T17:10:46;10.73;;;8.68;;
43337;SDS011;28933;52.492;13.434;2022-11-04T17:13:11;10.80;;;8.32;;
43337;SDS011;28933;52.492;13.434;2022-11-04T17:15:37;14.38;;;10.18;;
43337;SDS011;28933;52.492;13.434;2022-11-04T17:18:03;12.05;;;9.90;;
43337;SDS011;28933;52.492;13.434;2022-11-04T17:20:29;12.00;;;8.80;;
43337;SDS011;28933;52.492;13.434;2022-11-04T17:22:55;10.82;;;8.52;;
43337;SDS011;28933;52.492;13.434;2022-11-04T17:25:23;11.52;;;8.07;;
43337;SDS011;28933;52.492;13.434;2022-11-04T17:27:51;12.18;;;9.10;;